createdAt,value
2019-02-27T00:01:18.930Z,7.97
2019-02-27T00:03:46.864Z,7.00
2019-02-27T00:06:15.875Z,9.60
2019-02-27T00:08:43.973Z,8.60
2019-02-27T00:11:12.395Z,8.67
2019-02-27T00:13:40.818Z,6.00
2019-02-27T00:16:10.820Z,8.03
2019-02-27T00:18:38.560Z,9.77
2019-02-27T00:21:10.051Z,8.83
2019-02-27T00:23:36.185Z,7.90
2019-02-27T00:26:04.105Z,13.60
2019-02-27T00:28:32.035Z,10.70
2019-02-27T00:30:59.873Z,10.70
2019-02-27T00:33:28.794Z,7.67
2019-02-27T00:35:56.636Z,12.23
2019-02-27T00:38:25.175Z,14.00
2019-02-27T00:40:53.906Z,12.10
2019-02-27T00:43:21.569Z,15.67
2019-02-27T00:45:49.445Z,9.03
2019-02-27T00:48:17.356Z,9.67
2019-02-27T00:50:45.278Z,8.73
2019-02-27T00:53:13.115Z,11.07
2019-02-27T00:55:41.080Z,8.67
2019-02-27T00:58:08.962Z,11.03
2019-02-27T01:00:39.309Z,10.53
2019-02-27T01:03:06.655Z,10.63
2019-02-27T01:05:34.515Z,11.27
2019-02-27T01:08:02.373Z,10.60
2019-02-27T01:10:30.303Z,12.67
2019-02-27T01:12:58.756Z,11.77
2019-02-27T01:15:26.797Z,9.97
2019-02-27T01:17:55.032Z,10.67
2019-02-27T01:20:24.472Z,11.40
2019-02-27T01:22:52.237Z,10.17
2019-02-27T01:25:23.146Z,9.33
2019-02-27T01:27:51.567Z,10.77
2019-02-27T01:30:19.421Z,12.37
2019-02-27T01:32:47.349Z,10.97
2019-02-27T01:35:18.113Z,11.97
2019-02-27T01:37:45.883Z,14.37
2019-02-27T01:40:17.212Z,7.87
2019-02-27T01:42:43.564Z,12.00
2019-02-27T01:45:12.647Z,9.60
2019-02-27T01:47:40.575Z,12.07
2019-02-27T01:50:24.833Z,12.73
2019-02-27T01:52:52.800Z,12.57
2019-02-27T01:55:22.407Z,10.00
2019-02-27T01:57:50.526Z,8.77
2019-02-27T02:00:22.927Z,11.10
2019-02-27T02:02:48.199Z,11.03
2019-02-27T02:05:16.372Z,11.77
2019-02-27T02:07:45.917Z,11.83
2019-02-27T02:10:13.722Z,13.87
2019-02-27T02:12:42.213Z,11.30
2019-02-27T02:15:21.328Z,10.93
2019-02-27T02:18:03.461Z,10.50
2019-02-27T02:21:01.676Z,13.60
2019-02-27T02:24:04.003Z,11.50
2019-02-27T02:26:49.646Z,13.07
2019-02-27T02:29:35.472Z,13.37
2019-02-27T02:32:24.076Z,12.17
2019-02-27T02:35:20.182Z,7.80
2019-02-27T02:38:13.994Z,12.30
2019-02-27T02:41:01.359Z,11.93
2019-02-27T02:43:48.460Z,10.50
2019-02-27T02:46:44.864Z,8.47
2019-02-27T02:49:26.029Z,12.73
2019-02-27T02:51:56.917Z,11.83
2019-02-27T02:54:47.150Z,11.63
2019-02-27T02:57:36.274Z,12.03
2019-02-27T03:00:17.400Z,9.40
2019-02-27T03:02:48.696Z,11.80
2019-02-27T03:05:35.868Z,9.37
2019-02-27T03:08:22.930Z,13.47
2019-02-27T03:11:18.165Z,15.00
2019-02-27T03:14:01.566Z,18.33
2019-02-27T03:16:54.652Z,18.63
2019-02-27T03:19:29.340Z,11.30
2019-02-27T03:22:04.783Z,17.77
2019-02-27T03:25:05.563Z,14.60
2019-02-27T03:27:46.463Z,20.17
2019-02-27T03:30:39.674Z,17.57
2019-02-27T03:33:27.295Z,23.93
2019-02-27T03:36:20.881Z,24.07
2019-02-27T03:39:18.093Z,20.57
2019-02-27T03:42:11.671Z,16.00
2019-02-27T03:44:55.822Z,14.83
2019-02-27T03:47:44.384Z,18.80
2019-02-27T03:50:31.578Z,16.77
2019-02-27T03:53:02.542Z,15.43
2019-02-27T03:55:43.025Z,15.73
2019-02-27T03:58:39.433Z,10.73
2019-02-27T04:01:19.592Z,13.20
2019-02-27T04:04:12.544Z,14.60
2019-02-27T04:06:59.592Z,12.53
2019-02-27T04:09:27.744Z,12.73
2019-02-27T04:11:55.590Z,11.53
2019-02-27T04:14:30.289Z,12.93
2019-02-27T04:16:58.135Z,13.90
2019-02-27T04:19:25.951Z,12.37
2019-02-27T04:21:53.875Z,15.37
2019-02-27T04:24:22.582Z,13.30
2019-02-27T04:26:50.970Z,17.47
2019-02-27T04:29:18.922Z,14.17
2019-02-27T04:31:46.808Z,18.03
2019-02-27T04:34:14.684Z,19.37
2019-02-27T04:36:46.987Z,10.80
2019-02-27T04:39:12.360Z,9.33
2019-02-27T04:41:40.220Z,13.23
2019-02-27T04:44:08.156Z,14.77
2019-02-27T04:46:35.960Z,12.90
2019-02-27T04:49:04.962Z,16.90
2019-02-27T04:51:33.104Z,11.43
2019-02-27T04:54:01.079Z,10.23
2019-02-27T04:56:28.946Z,14.43
2019-02-27T04:58:56.955Z,12.67
2019-02-27T05:01:24.807Z,16.77
2019-02-27T05:03:52.768Z,9.47
2019-02-27T05:06:20.788Z,7.70
2019-02-27T05:08:48.597Z,7.67
2019-02-27T05:11:16.584Z,10.87
2019-02-27T05:13:44.497Z,11.30
2019-02-27T05:16:14.195Z,10.93
2019-02-27T05:18:42.212Z,11.10
2019-02-27T05:21:10.143Z,17.93
2019-02-27T05:23:38.112Z,7.47
2019-02-27T05:26:05.923Z,10.80
2019-02-27T05:28:34.995Z,13.53
2019-02-27T05:31:03.488Z,11.57
2019-02-27T05:33:35.685Z,10.13
2019-02-27T05:36:01.039Z,14.17
2019-02-27T05:38:28.928Z,11.63
2019-02-27T05:40:59.885Z,11.67
2019-02-27T05:43:26.568Z,14.30
2019-02-27T05:45:54.498Z,8.80
2019-02-27T05:48:22.352Z,7.83
2019-02-27T05:50:50.454Z,10.47
2019-02-27T05:53:22.129Z,10.53
2019-02-27T05:55:48.075Z,8.50
2019-02-27T05:58:16.011Z,13.80
2019-02-27T06:00:44.031Z,13.43
2019-02-27T06:03:11.993Z,11.57
2019-02-27T06:05:39.913Z,10.93
2019-02-27T06:08:07.806Z,12.83
2019-02-27T06:10:35.692Z,9.90
2019-02-27T06:13:03.590Z,14.80
2019-02-27T06:15:31.424Z,12.17
2019-02-27T06:17:59.187Z,14.17
2019-02-27T06:20:27.080Z,20.37
2019-02-27T06:22:55.035Z,20.53
2019-02-27T06:25:23.927Z,21.20
2019-02-27T06:27:52.038Z,21.50
2019-02-27T06:30:19.950Z,23.30
2019-02-27T06:32:47.817Z,21.53
2019-02-27T06:35:15.859Z,21.73
2019-02-27T06:37:43.642Z,25.93
2019-02-27T06:40:12.305Z,20.33
2019-02-27T06:42:40.279Z,20.50
2019-02-27T06:45:10.234Z,15.37
2019-02-27T06:47:38.379Z,19.30
2019-02-27T06:50:07.132Z,16.37
2019-02-27T06:52:35.029Z,15.93
2019-02-27T06:55:02.813Z,14.20
2019-02-27T06:57:30.728Z,16.73
2019-02-27T07:00:02.216Z,14.60
2019-02-27T07:02:28.575Z,11.13
2019-02-27T07:04:56.592Z,11.43
2019-02-27T07:07:24.583Z,17.20
2019-02-27T07:09:52.462Z,14.37
2019-02-27T07:12:21.787Z,13.97
2019-02-27T07:14:50.038Z,9.87
2019-02-27T07:17:17.894Z,13.77
2019-02-27T07:19:47.398Z,10.30
2019-02-27T07:22:15.403Z,13.43
2019-02-27T07:24:43.239Z,9.90
2019-02-27T07:27:11.247Z,11.80
2019-02-27T07:29:39.076Z,12.10
2019-02-27T07:32:06.967Z,10.07
2019-02-27T07:34:34.878Z,13.57
2019-02-27T07:37:02.881Z,9.20
2019-02-27T07:39:32.761Z,11.80
2019-02-27T07:42:00.527Z,11.27
2019-02-27T07:44:28.437Z,13.50
2019-02-27T07:46:57.449Z,13.23
2019-02-27T07:49:28.365Z,13.33
2019-02-27T07:51:57.956Z,15.53
2019-02-27T07:54:28.833Z,9.77
2019-02-27T07:56:54.786Z,12.97
2019-02-27T07:59:22.768Z,12.00
2019-02-27T08:01:50.654Z,8.03
2019-02-27T08:04:19.508Z,13.40
2019-02-27T08:06:48.319Z,11.97
2019-02-27T08:09:16.184Z,9.97
2019-02-27T08:11:47.152Z,15.83
2019-02-27T08:14:13.776Z,11.27
2019-02-27T08:16:41.665Z,13.77
2019-02-27T08:19:11.555Z,10.83
2019-02-27T08:21:39.342Z,16.07
2019-02-27T08:24:07.679Z,10.03
2019-02-27T08:26:36.446Z,11.77
2019-02-27T08:29:04.838Z,12.03
2019-02-27T08:31:32.822Z,8.70
2019-02-27T08:34:00.866Z,11.07
2019-02-27T08:36:28.746Z,12.23
2019-02-27T08:38:56.681Z,10.70
2019-02-27T08:41:24.707Z,13.97
2019-02-27T08:43:52.660Z,11.70
2019-02-27T08:46:20.531Z,10.13
2019-02-27T08:48:50.189Z,13.53
2019-02-27T08:51:18.200Z,12.00
2019-02-27T08:53:46.096Z,10.13
2019-02-27T08:56:13.927Z,15.37
2019-02-27T08:58:41.816Z,12.37
2019-02-27T09:01:10.176Z,14.53
2019-02-27T09:03:38.419Z,12.70
2019-02-27T09:06:06.320Z,10.90
2019-02-27T09:08:34.197Z,12.83
2019-02-27T09:11:05.513Z,12.03
2019-02-27T09:13:31.767Z,12.00
2019-02-27T09:15:59.685Z,13.90
2019-02-27T09:18:27.660Z,10.37
2019-02-27T09:20:55.555Z,12.07
2019-02-27T09:23:23.428Z,10.50
2019-02-27T09:25:57.038Z,13.43
2019-02-27T09:28:21.013Z,17.73
2019-02-27T09:30:48.971Z,15.93
2019-02-27T09:33:19.826Z,14.70
2019-02-27T09:35:46.762Z,18.10
2019-02-27T09:38:14.635Z,13.70
2019-02-27T09:40:42.580Z,10.23
2019-02-27T09:43:11.697Z,13.10
2019-02-27T09:45:39.667Z,10.80
2019-02-27T09:48:09.395Z,16.20
2019-02-27T09:50:38.031Z,10.50
2019-02-27T09:53:05.962Z,11.97
2019-02-27T09:55:33.968Z,13.93
2019-02-27T09:58:01.759Z,16.53
2019-02-27T10:00:30.775Z,10.53
2019-02-27T10:02:59.915Z,17.77
2019-02-27T10:05:27.902Z,13.23
2019-02-27T10:07:57.454Z,15.80
2019-02-27T10:10:25.546Z,13.60
2019-02-27T10:12:53.462Z,12.57
2019-02-27T10:15:22.531Z,26.50
2019-02-27T10:17:51.108Z,12.63
2019-02-27T10:20:18.991Z,7.53
2019-02-27T10:22:46.996Z,13.13
2019-02-27T10:25:14.887Z,10.63
2019-02-27T10:27:42.815Z,10.90
2019-02-27T10:30:11.713Z,10.97
2019-02-27T10:32:39.922Z,15.63
2019-02-27T10:35:07.830Z,7.40
2019-02-27T10:37:35.805Z,14.37
2019-02-27T10:40:04.928Z,14.30
2019-02-27T10:42:32.759Z,12.37
2019-02-27T10:45:00.430Z,9.50
2019-02-27T10:47:28.348Z,9.70
2019-02-27T10:49:56.155Z,9.60
2019-02-27T10:52:24.316Z,11.20
2019-02-27T10:54:52.942Z,7.83
2019-02-27T10:57:20.786Z,11.12
2019-02-27T10:59:48.733Z,14.07
2019-02-27T11:02:16.678Z,9.93
2019-02-27T11:04:44.573Z,11.25
2019-02-27T11:07:13.232Z,12.78
2019-02-27T11:09:42.435Z,11.10
2019-02-27T11:12:10.333Z,10.85
2019-02-27T11:14:38.099Z,10.28
2019-02-27T11:17:06.013Z,6.90
2019-02-27T11:19:34.876Z,8.75
2019-02-27T11:22:02.820Z,15.75
2019-02-27T11:24:30.729Z,7.95
2019-02-27T11:26:58.642Z,14.35
2019-02-27T11:29:26.510Z,8.13
2019-02-27T11:31:54.391Z,10.13
2019-02-27T11:34:22.248Z,9.15
2019-02-27T11:36:50.101Z,10.60
2019-02-27T11:39:18.056Z,10.05
2019-02-27T11:41:46.062Z,11.93
2019-02-27T11:44:15.651Z,15.95
2019-02-27T11:46:43.584Z,6.95
2019-02-27T11:49:12.504Z,9.45
2019-02-27T11:51:40.396Z,10.65
2019-02-27T11:54:09.101Z,12.18
2019-02-27T11:56:37.052Z,9.75
2019-02-27T11:59:06.057Z,10.40
2019-02-27T12:01:34.075Z,8.73
2019-02-27T12:04:01.957Z,8.23
2019-02-27T12:06:29.939Z,8.13
2019-02-27T12:08:59.712Z,9.65
2019-02-27T12:11:27.501Z,13.10
2019-02-27T12:13:55.364Z,9.95
2019-02-27T12:16:23.610Z,9.00
2019-02-27T12:18:51.619Z,10.23
2019-02-27T12:21:19.475Z,13.28
2019-02-27T12:23:47.331Z,9.63
2019-02-27T12:26:15.347Z,12.75
2019-02-27T12:28:43.199Z,10.60
2019-02-27T12:31:14.235Z,30.37
2019-02-27T12:33:40.765Z,10.03
2019-02-27T12:36:09.038Z,11.20
2019-02-27T12:38:39.312Z,8.70
2019-02-27T12:41:06.714Z,9.03
2019-02-27T12:43:34.668Z,10.63
2019-02-27T12:46:02.606Z,13.37
2019-02-27T12:48:30.400Z,9.83
2019-02-27T12:50:58.174Z,9.65
2019-02-27T12:53:26.111Z,11.97
2019-02-27T12:55:54.026Z,7.08
2019-02-27T12:58:24.415Z,8.15
2019-02-27T13:00:51.562Z,7.65
2019-02-27T13:03:19.452Z,8.57
2019-02-27T13:05:47.416Z,7.27
2019-02-27T13:08:16.322Z,9.40
2019-02-27T13:10:44.999Z,9.40
2019-02-27T13:13:12.864Z,11.07
2019-02-27T13:15:41.102Z,9.53
2019-02-27T13:18:09.607Z,9.97
2019-02-27T13:20:37.483Z,9.30
2019-02-27T13:23:05.589Z,8.57
2019-02-27T13:25:33.425Z,9.53
2019-02-27T13:28:01.385Z,8.60
2019-02-27T13:30:29.407Z,11.13
2019-02-27T13:33:00.771Z,12.13
2019-02-27T13:35:28.457Z,7.00
2019-02-27T13:37:56.719Z,9.77
2019-02-27T13:40:24.623Z,10.37
2019-02-27T13:42:53.570Z,11.30
2019-02-27T13:45:22.578Z,7.90
2019-02-27T13:47:50.488Z,11.60
2019-02-27T13:50:22.402Z,7.30
2019-02-27T13:52:50.762Z,9.77
2019-02-27T13:55:18.695Z,15.20
2019-02-27T13:57:46.534Z,20.33
2019-02-27T14:00:20.424Z,9.13
2019-02-27T14:02:45.534Z,6.80
2019-02-27T14:05:13.390Z,7.10
2019-02-27T14:07:41.368Z,10.33
2019-02-27T14:10:09.343Z,10.37
2019-02-27T14:12:37.298Z,9.30
2019-02-27T14:15:05.854Z,7.63
2019-02-27T14:17:33.769Z,7.67
2019-02-27T14:20:01.662Z,9.27
2019-02-27T14:22:29.757Z,8.30
2019-02-27T14:24:58.376Z,7.37
2019-02-27T14:27:26.455Z,9.93
2019-02-27T14:29:54.535Z,10.47
2019-02-27T14:32:22.522Z,9.90
2019-02-27T14:34:50.371Z,6.60
2019-02-27T14:37:18.492Z,8.70
2019-02-27T14:39:46.693Z,9.00
2019-02-27T14:42:14.562Z,8.63
2019-02-27T14:44:42.516Z,8.60
2019-02-27T14:47:10.410Z,9.20
2019-02-27T14:49:38.363Z,7.00
2019-02-27T14:52:07.504Z,10.77
2019-02-27T14:54:35.402Z,9.83
2019-02-27T14:57:03.191Z,7.53
2019-02-27T14:59:32.121Z,9.07
2019-02-27T15:01:59.888Z,8.23
2019-02-27T15:04:27.710Z,8.23
2019-02-27T15:06:55.640Z,9.17
2019-02-27T15:09:23.548Z,10.27
2019-02-27T15:11:51.529Z,11.40
2019-02-27T15:14:19.423Z,8.63
2019-02-27T15:16:49.305Z,9.23
2019-02-27T15:19:18.883Z,6.93
2019-02-27T15:21:47.363Z,7.57
2019-02-27T15:24:15.360Z,7.07
2019-02-27T15:26:45.363Z,7.40
2019-02-27T15:29:12.909Z,8.53
2019-02-27T15:31:40.891Z,7.47
2019-02-27T15:34:11.727Z,7.77
2019-02-27T15:36:38.544Z,9.30
2019-02-27T15:39:06.862Z,9.37
2019-02-27T15:41:35.466Z,7.37
2019-02-27T15:44:03.881Z,7.63
2019-02-27T15:46:31.786Z,12.57
2019-02-27T15:49:00.412Z,13.13
2019-02-27T15:51:32.252Z,7.73
2019-02-27T15:53:59.972Z,9.20
2019-02-27T15:56:27.964Z,7.80
2019-02-27T15:58:56.144Z,10.17
2019-02-27T16:01:24.818Z,11.23
2019-02-27T16:03:53.711Z,10.63
2019-02-27T16:06:21.624Z,12.37
2019-02-27T16:08:49.323Z,7.93
2019-02-27T16:11:17.393Z,12.00
2019-02-27T16:13:45.431Z,10.27
2019-02-27T16:16:13.359Z,14.17
2019-02-27T16:18:41.217Z,10.03
2019-02-27T16:21:09.219Z,11.43
2019-02-27T16:23:37.483Z,12.53
2019-02-27T16:26:06.032Z,12.67
2019-02-27T16:28:33.993Z,9.07
2019-02-27T16:31:05.910Z,11.30
2019-02-27T16:33:31.803Z,16.10
2019-02-27T16:35:59.867Z,15.17
2019-02-27T16:38:28.375Z,9.80
2019-02-27T16:40:57.686Z,10.40
2019-02-27T16:43:25.759Z,10.90
2019-02-27T16:45:53.575Z,11.73
2019-02-27T16:48:21.466Z,11.20
2019-02-27T16:50:49.471Z,16.33
2019-02-27T16:53:19.459Z,12.63
2019-02-27T16:55:48.419Z,16.13
2019-02-27T16:58:16.442Z,13.20
2019-02-27T17:00:44.461Z,8.97
2019-02-27T17:03:13.415Z,10.83
2019-02-27T17:05:43.115Z,20.40
2019-02-27T17:08:11.553Z,13.53
2019-02-27T17:10:39.397Z,13.77
2019-02-27T17:13:07.227Z,15.03
2019-02-27T17:15:36.302Z,15.17
2019-02-27T17:18:04.444Z,15.97
2019-02-27T17:20:32.442Z,15.83
2019-02-27T17:23:00.389Z,12.23
2019-02-27T17:25:29.997Z,18.57
2019-02-27T17:27:58.007Z,20.23
2019-02-27T17:30:27.222Z,16.27
2019-02-27T17:32:55.112Z,13.23
2019-02-27T17:35:24.226Z,14.47
2019-02-27T17:37:52.060Z,16.57
2019-02-27T17:40:19.951Z,19.10
2019-02-27T17:42:53.000Z,21.57
2019-02-27T17:45:17.939Z,16.87
2019-02-27T17:47:45.780Z,18.17
2019-02-27T17:50:14.433Z,15.57
2019-02-27T17:52:42.329Z,15.90
2019-02-27T17:55:10.192Z,19.87
2019-02-27T17:57:39.361Z,18.17
2019-02-27T18:00:09.712Z,15.67
2019-02-27T18:02:37.583Z,19.40
2019-02-27T18:05:05.561Z,19.90
2019-02-27T18:07:34.520Z,18.93
2019-02-27T18:10:02.755Z,27.30
2019-02-27T18:12:30.660Z,32.27
2019-02-27T18:14:58.615Z,33.03
2019-02-27T18:17:26.568Z,32.70
2019-02-27T18:19:54.465Z,34.63
2019-02-27T18:22:22.368Z,42.53
2019-02-27T18:24:50.320Z,39.00
2019-02-27T18:27:18.146Z,48.70
2019-02-27T18:29:49.126Z,42.20
2019-02-27T18:32:17.004Z,45.07
2019-02-27T18:34:44.914Z,39.53
2019-02-27T18:37:14.490Z,29.43
2019-02-27T18:39:42.531Z,33.08
2019-02-27T18:42:10.485Z,30.73
2019-02-27T18:44:41.472Z,29.63
2019-02-27T18:47:08.257Z,28.13
2019-02-27T18:49:36.413Z,30.47
2019-02-27T18:52:06.615Z,23.93
2019-02-27T18:54:33.931Z,21.60
2019-02-27T18:57:03.846Z,30.87
2019-02-27T18:59:33.447Z,27.17
2019-02-27T19:02:01.241Z,19.43
2019-02-27T19:04:29.244Z,22.73
2019-02-27T19:06:57.047Z,27.80
2019-02-27T19:09:24.911Z,25.00
2019-02-27T19:11:52.761Z,28.63
2019-02-27T19:14:20.656Z,23.93
2019-02-27T19:16:48.511Z,27.37
2019-02-27T19:19:16.460Z,21.47
2019-02-27T19:21:44.156Z,29.20
2019-02-27T19:24:12.172Z,29.70
2019-02-27T19:26:41.712Z,23.57
2019-02-27T19:29:10.087Z,25.00
2019-02-27T19:31:38.127Z,21.43
2019-02-27T19:34:07.448Z,20.37
2019-02-27T19:36:35.810Z,23.23
2019-02-27T19:39:04.901Z,26.50
2019-02-27T19:41:38.744Z,25.40
2019-02-27T19:44:02.863Z,22.87
2019-02-27T19:46:30.806Z,20.17
2019-02-27T19:49:00.819Z,21.90
2019-02-27T19:51:28.489Z,23.40
2019-02-27T19:53:56.363Z,23.73
2019-02-27T19:56:24.320Z,23.27
2019-02-27T19:58:52.262Z,18.23
2019-02-27T20:01:20.382Z,17.77
2019-02-27T20:03:48.302Z,20.10
2019-02-27T20:06:16.422Z,17.47
2019-02-27T20:08:45.393Z,23.63
2019-02-27T20:11:13.793Z,19.90
2019-02-27T20:13:41.891Z,18.57
2019-02-27T20:16:09.920Z,16.57
2019-02-27T20:18:40.515Z,18.60
2019-02-27T20:21:10.499Z,17.60
2019-02-27T20:23:37.337Z,18.57
2019-02-27T20:26:13.856Z,18.43
2019-02-27T20:28:36.485Z,18.47
2019-02-27T20:31:05.645Z,19.27
2019-02-27T20:33:37.166Z,23.70
2019-02-27T20:36:05.443Z,20.57
2019-02-27T20:38:34.986Z,19.07
2019-02-27T20:41:06.073Z,18.73
2019-02-27T20:43:35.991Z,19.60
2019-02-27T20:46:05.626Z,16.77
2019-02-27T20:48:36.164Z,19.20
2019-02-27T20:51:06.718Z,18.00
2019-02-27T20:53:35.292Z,16.70
2019-02-27T20:56:03.757Z,23.37
2019-02-27T20:58:31.726Z,18.70
2019-02-27T21:00:59.772Z,19.17
2019-02-27T21:03:28.069Z,18.90
2019-02-27T21:05:56.209Z,24.90
2019-02-27T21:08:24.084Z,17.50
2019-02-27T21:10:55.245Z,21.80
2019-02-27T21:13:21.658Z,16.57
2019-02-27T21:15:49.527Z,17.97
2019-02-27T21:18:17.630Z,23.47
2019-02-27T21:20:46.269Z,21.50
2019-02-27T21:23:14.481Z,20.13
2019-02-27T21:25:42.481Z,19.57
2019-02-27T21:28:10.610Z,19.50
2019-02-27T21:30:38.362Z,19.60
2019-02-27T21:33:08.313Z,17.53
2019-02-27T21:35:35.743Z,15.87
2019-02-27T21:38:03.690Z,16.47
2019-02-27T21:40:33.397Z,17.23
2019-02-27T21:43:01.271Z,16.50
2019-02-27T21:45:29.230Z,17.30
2019-02-27T21:47:57.243Z,17.17
2019-02-27T21:50:25.001Z,15.67
2019-02-27T21:52:54.325Z,15.33
2019-02-27T21:55:22.566Z,15.17
2019-02-27T21:57:50.423Z,17.93
2019-02-27T22:00:21.042Z,14.70
2019-02-27T22:02:49.146Z,17.40
2019-02-27T22:05:18.975Z,14.80
2019-02-27T22:07:46.793Z,19.97
2019-02-27T22:10:19.061Z,14.90
2019-02-27T22:12:44.582Z,15.77
2019-02-27T22:15:14.605Z,14.60
2019-02-27T22:17:42.613Z,16.03
2019-02-27T22:20:10.413Z,16.87
2019-02-27T22:22:41.105Z,18.80
2019-02-27T22:25:08.052Z,14.23
2019-02-27T22:27:36.071Z,17.57
2019-02-27T22:30:04.869Z,14.70
2019-02-27T22:32:32.843Z,12.57
2019-02-27T22:35:02.813Z,15.10
2019-02-27T22:37:30.494Z,17.07
2019-02-27T22:39:58.449Z,14.13
2019-02-27T22:42:26.373Z,13.73
2019-02-27T22:44:54.301Z,14.83
2019-02-27T22:47:22.688Z,15.43
2019-02-27T22:49:50.542Z,18.37
2019-02-27T22:52:19.191Z,14.97
2019-02-27T22:54:48.169Z,16.43
2019-02-27T22:57:15.994Z,14.27
2019-02-27T22:59:43.861Z,15.90
2019-02-27T23:02:12.077Z,13.67
2019-02-27T23:04:40.237Z,17.40
2019-02-27T23:07:08.079Z,15.97
2019-02-27T23:09:36.907Z,16.67
2019-02-27T23:12:04.939Z,12.97
2019-02-27T23:14:32.889Z,13.93
2019-02-27T23:17:01.337Z,23.27
2019-02-27T23:19:29.367Z,15.93
2019-02-27T23:21:58.416Z,14.10
2019-02-27T23:24:26.360Z,17.00
2019-02-27T23:26:54.765Z,13.60
2019-02-27T23:29:23.575Z,11.00
2019-02-27T23:31:54.765Z,12.97
2019-02-27T23:34:21.137Z,12.03
2019-02-27T23:36:49.138Z,13.53
2019-02-27T23:39:17.216Z,13.90
2019-02-27T23:41:45.152Z,13.73
2019-02-27T23:44:13.132Z,14.73
2019-02-27T23:46:48.704Z,12.80
2019-02-27T23:49:11.127Z,19.77
2019-02-27T23:51:39.198Z,11.60
2019-02-27T23:54:07.105Z,13.43
2019-02-27T23:56:35.238Z,12.77
2019-02-27T23:59:03.401Z,14.67
